sensor_id;sensor_type;location;lat;lon;timestamp;temperature;humidity
152;DHT22;68;48.792;9.164;2023-05-07T00:02:06;15.60;91.30
152;DHT22;68;48.792;9.164;2023-05-07T00:04:33;15.40;91.60
152;DHT22;68;48.792;9.164;2023-05-07T00:07:03;15.60;92.30
152;DHT22;68;48.792;9.164;2023-05-07T00:09:29;15.70;92.20
152;DHT22;68;48.792;9.164;2023-05-07T00:11:56;15.80;91.20
152;DHT22;68;48.792;9.164;2023-05-07T00:14:23;15.60;91.00
152;DHT22;68;48.792;9.164;2023-05-07T00:16:51;15.40;91.40
152;DHT22;68;48.792;9.164;2023-05-07T00:19:18;15.10;92.20
152;DHT22;68;48.792;9.164;2023-05-07T00:21:44;15.10;92.90
152;DHT22;68;48.792;9.164;2023-05-07T00:24:11;15.20;92.70
152;DHT22;68;48.792;9.164;2023-05-07T00:26:38;15.00;92.80
152;DHT22;68;48.792;9.164;2023-05-07T00:29:05;14.90;93.10
152;DHT22;68;48.792;9.164;2023-05-07T00:31:32;14.90;93.40
152;DHT22;68;48.792;9.164;2023-05-07T00:34:00;14.90;93.40
152;DHT22;68;48.792;9.164;2023-05-07T00:36:26;14.80;93.50
152;DHT22;68;48.792;9.164;2023-05-07T00:38:56;14.60;93.80
152;DHT22;68;48.792;9.164;2023-05-07T00:41:23;14.60;94.00
152;DHT22;68;48.792;9.164;2023-05-07T00:43:50;14.60;93.90
152;DHT22;68;48.792;9.164;2023-05-07T00:46:17;14.60;94.10
152;DHT22;68;48.792;9.164;2023-05-07T00:48:45;14.50;94.00
152;DHT22;68;48.792;9.164;2023-05-07T00:51:13;14.40;94.10
152;DHT22;68;48.792;9.164;2023-05-07T00:53:40;14.30;94.20
152;DHT22;68;48.792;9.164;2023-05-07T00:56:07;14.40;94.20
152;DHT22;68;48.792;9.164;2023-05-07T00:58:35;14.40;94.20
152;DHT22;68;48.792;9.164;2023-05-07T01:01:02;14.30;94.20
152;DHT22;68;48.792;9.164;2023-05-07T01:03:29;14.20;94.20
152;DHT22;68;48.792;9.164;2023-05-07T01:05:57;14.20;94.20
152;DHT22;68;48.792;9.164;2023-05-07T01:08:28;14.20;94.20
152;DHT22;68;48.792;9.164;2023-05-07T01:10:56;14.10;94.20
152;DHT22;68;48.792;9.164;2023-05-07T01:13:24;14.10;94.20
152;DHT22;68;48.792;9.164;2023-05-07T01:15:51;14.20;94.20
152;DHT22;68;48.792;9.164;2023-05-07T01:18:18;14.30;94.10
152;DHT22;68;48.792;9.164;2023-05-07T01:20:45;14.20;94.20
152;DHT22;68;48.792;9.164;2023-05-07T01:23:13;14.20;94.20
152;DHT22;68;48.792;9.164;2023-05-07T01:25:41;14.20;94.20
152;DHT22;68;48.792;9.164;2023-05-07T01:28:07;14.10;94.20
152;DHT22;68;48.792;9.164;2023-05-07T01:30:35;14.10;94.00
152;DHT22;68;48.792;9.164;2023-05-07T01:33:06;14.00;94.00
152;DHT22;68;48.792;9.164;2023-05-07T01:35:37;14.00;93.90
152;DHT22;68;48.792;9.164;2023-05-07T01:38:05;14.00;93.80
152;DHT22;68;48.792;9.164;2023-05-07T01:40:33;14.00;93.90
152;DHT22;68;48.792;9.164;2023-05-07T01:43:01;13.90;93.80
152;DHT22;68;48.792;9.164;2023-05-07T01:45:30;13.90;93.60
152;DHT22;68;48.792;9.164;2023-05-07T01:47:58;13.90;93.60
152;DHT22;68;48.792;9.164;2023-05-07T01:50:25;13.90;93.40
152;DHT22;68;48.792;9.164;2023-05-07T01:52:52;13.90;93.50
152;DHT22;68;48.792;9.164;2023-05-07T01:55:19;13.90;93.40
152;DHT22;68;48.792;9.164;2023-05-07T01:57:47;13.90;93.50
152;DHT22;68;48.792;9.164;2023-05-07T02:00:14;13.90;93.40
152;DHT22;68;48.792;9.164;2023-05-07T02:02:41;13.80;93.20
152;DHT22;68;48.792;9.164;2023-05-07T02:05:08;13.80;93.20
152;DHT22;68;48.792;9.164;2023-05-07T02:07:35;13.80;93.30
152;DHT22;68;48.792;9.164;2023-05-07T02:10:02;13.80;93.10
152;DHT22;68;48.792;9.164;2023-05-07T02:12:29;13.80;93.30
152;DHT22;68;48.792;9.164;2023-05-07T02:14:57;13.90;93.30
152;DHT22;68;48.792;9.164;2023-05-07T02:17:24;13.90;93.20
152;DHT22;68;48.792;9.164;2023-05-07T02:19:51;14.00;93.40
152;DHT22;68;48.792;9.164;2023-05-07T02:22:18;13.90;93.50
152;DHT22;68;48.792;9.164;2023-05-07T02:24:44;13.90;93.30
152;DHT22;68;48.792;9.164;2023-05-07T02:27:11;13.80;93.10
152;DHT22;68;48.792;9.164;2023-05-07T02:29:38;13.80;92.90
152;DHT22;68;48.792;9.164;2023-05-07T02:32:06;13.80;92.90
152;DHT22;68;48.792;9.164;2023-05-07T02:34:33;13.90;93.10
152;DHT22;68;48.792;9.164;2023-05-07T02:36:59;13.90;93.30
152;DHT22;68;48.792;9.164;2023-05-07T02:39:26;13.90;93.20
152;DHT22;68;48.792;9.164;2023-05-07T02:41:53;13.80;92.90
152;DHT22;68;48.792;9.164;2023-05-07T02:44:20;13.70;92.60
152;DHT22;68;48.792;9.164;2023-05-07T02:46:47;13.70;92.60
152;DHT22;68;48.792;9.164;2023-05-07T02:49:15;13.80;92.70
152;DHT22;68;48.792;9.164;2023-05-07T02:51:41;13.80;92.60
152;DHT22;68;48.792;9.164;2023-05-07T02:54:08;13.70;92.80
152;DHT22;68;48.792;9.164;2023-05-07T02:56:35;13.50;92.30
152;DHT22;68;48.792;9.164;2023-05-07T02:59:02;13.50;91.30
152;DHT22;68;48.792;9.164;2023-05-07T03:01:28;13.40;90.50
152;DHT22;68;48.792;9.164;2023-05-07T03:03:55;13.40;90.80
152;DHT22;68;48.792;9.164;2023-05-07T03:06:24;13.30;90.90
152;DHT22;68;48.792;9.164;2023-05-07T03:08:51;13.30;90.10
152;DHT22;68;48.792;9.164;2023-05-07T03:11:18;13.20;90.30
152;DHT22;68;48.792;9.164;2023-05-07T03:13:45;13.10;89.50
152;DHT22;68;48.792;9.164;2023-05-07T03:16:12;13.10;89.50
152;DHT22;68;48.792;9.164;2023-05-07T03:18:38;13.00;88.70
152;DHT22;68;48.792;9.164;2023-05-07T03:21:05;13.00;88.10
152;DHT22;68;48.792;9.164;2023-05-07T03:23:33;13.00;87.70
152;DHT22;68;48.792;9.164;2023-05-07T03:26:00;13.00;86.60
152;DHT22;68;48.792;9.164;2023-05-07T03:28:27;13.10;87.00
152;DHT22;68;48.792;9.164;2023-05-07T03:30:54;13.10;88.00
152;DHT22;68;48.792;9.164;2023-05-07T03:33:20;13.10;88.70
152;DHT22;68;48.792;9.164;2023-05-07T03:35:47;13.10;89.10
152;DHT22;68;48.792;9.164;2023-05-07T03:38:14;13.10;89.20
152;DHT22;68;48.792;9.164;2023-05-07T03:40:42;13.10;88.10
152;DHT22;68;48.792;9.164;2023-05-07T03:43:09;13.10;88.90
152;DHT22;68;48.792;9.164;2023-05-07T03:45:35;13.10;89.60
152;DHT22;68;48.792;9.164;2023-05-07T03:48:03;13.00;88.90
152;DHT22;68;48.792;9.164;2023-05-07T03:50:29;13.00;88.60
152;DHT22;68;48.792;9.164;2023-05-07T03:52:56;13.20;87.10
152;DHT22;68;48.792;9.164;2023-05-07T03:55:23;13.50;87.00
152;DHT22;68;48.792;9.164;2023-05-07T03:57:51;13.40;89.80
152;DHT22;68;48.792;9.164;2023-05-07T04:00:18;13.30;90.70
152;DHT22;68;48.792;9.164;2023-05-07T04:02:45;13.20;89.60
152;DHT22;68;48.792;9.164;2023-05-07T04:05:13;13.10;88.10
152;DHT22;68;48.792;9.164;2023-05-07T04:07:40;13.00;88.60
152;DHT22;68;48.792;9.164;2023-05-07T04:10:07;13.00;87.90
152;DHT22;68;48.792;9.164;2023-05-07T04:12:35;13.10;87.30
152;DHT22;68;48.792;9.164;2023-05-07T04:15:04;13.00;88.00
152;DHT22;68;48.792;9.164;2023-05-07T04:17:30;13.00;87.90
152;DHT22;68;48.792;9.164;2023-05-07T04:19:57;12.90;87.00
152;DHT22;68;48.792;9.164;2023-05-07T04:22:24;12.90;84.40
152;DHT22;68;48.792;9.164;2023-05-07T04:24:51;12.80;84.20
152;DHT22;68;48.792;9.164;2023-05-07T04:27:17;12.80;83.50
152;DHT22;68;48.792;9.164;2023-05-07T04:29:44;12.90;84.40
152;DHT22;68;48.792;9.164;2023-05-07T04:32:14;12.90;84.10
152;DHT22;68;48.792;9.164;2023-05-07T04:34:41;13.10;83.80
152;DHT22;68;48.792;9.164;2023-05-07T04:37:08;13.30;84.10
152;DHT22;68;48.792;9.164;2023-05-07T04:39:35;13.60;85.80
152;DHT22;68;48.792;9.164;2023-05-07T04:42:01;13.60;88.00
152;DHT22;68;48.792;9.164;2023-05-07T04:44:28;13.60;89.30
152;DHT22;68;48.792;9.164;2023-05-07T04:46:56;13.60;90.80
152;DHT22;68;48.792;9.164;2023-05-07T04:49:24;13.50;90.30
152;DHT22;68;48.792;9.164;2023-05-07T04:51:51;13.50;89.90
152;DHT22;68;48.792;9.164;2023-05-07T04:54:18;13.50;89.80
152;DHT22;68;48.792;9.164;2023-05-07T04:56:44;13.50;89.80
152;DHT22;68;48.792;9.164;2023-05-07T04:59:11;13.50;89.60
152;DHT22;68;48.792;9.164;2023-05-07T05:01:38;13.60;87.80
152;DHT22;68;48.792;9.164;2023-05-07T05:04:05;13.60;89.30
152;DHT22;68;48.792;9.164;2023-05-07T05:06:33;13.60;89.80
152;DHT22;68;48.792;9.164;2023-05-07T05:09:00;13.60;90.60
152;DHT22;68;48.792;9.164;2023-05-07T05:11:27;13.60;90.70
152;DHT22;68;48.792;9.164;2023-05-07T05:13:54;13.60;90.00
152;DHT22;68;48.792;9.164;2023-05-07T05:16:20;13.90;89.70
152;DHT22;68;48.792;9.164;2023-05-07T05:18:47;14.20;91.20
152;DHT22;68;48.792;9.164;2023-05-07T05:21:14;14.10;92.70
152;DHT22;68;48.792;9.164;2023-05-07T05:23:42;13.70;92.50
152;DHT22;68;48.792;9.164;2023-05-07T05:26:09;13.60;91.40
152;DHT22;68;48.792;9.164;2023-05-07T05:28:35;13.80;89.40
152;DHT22;68;48.792;9.164;2023-05-07T05:31:02;14.10;91.70
152;DHT22;68;48.792;9.164;2023-05-07T05:33:29;14.20;92.90
152;DHT22;68;48.792;9.164;2023-05-07T05:35:56;14.30;92.80
152;DHT22;68;48.792;9.164;2023-05-07T05:38:22;14.30;92.70
152;DHT22;68;48.792;9.164;2023-05-07T05:40:50;14.30;91.40
152;DHT22;68;48.792;9.164;2023-05-07T05:43:17;14.40;92.60
152;DHT22;68;48.792;9.164;2023-05-07T05:45:44;14.40;92.60
152;DHT22;68;48.792;9.164;2023-05-07T05:48:11;14.20;93.20
152;DHT22;68;48.792;9.164;2023-05-07T05:50:37;14.00;92.60
152;DHT22;68;48.792;9.164;2023-05-07T05:53:04;14.20;91.60
152;DHT22;68;48.792;9.164;2023-05-07T05:55:31;14.60;93.80
152;DHT22;68;48.792;9.164;2023-05-07T05:58:00;14.70;94.30
152;DHT22;68;48.792;9.164;2023-05-07T06:00:27;14.70;94.20
152;DHT22;68;48.792;9.164;2023-05-07T06:02:54;14.80;94.30
152;DHT22;68;48.792;9.164;2023-05-07T06:05:21;15.10;94.40
152;DHT22;68;48.792;9.164;2023-05-07T06:07:48;15.10;94.30
152;DHT22;68;48.792;9.164;2023-05-07T06:10:15;15.20;94.40
152;DHT22;68;48.792;9.164;2023-05-07T06:12:41;15.40;94.10
152;DHT22;68;48.792;9.164;2023-05-07T06:15:10;15.50;93.90
152;DHT22;68;48.792;9.164;2023-05-07T06:17:37;15.70;93.40
152;DHT22;68;48.792;9.164;2023-05-07T06:20:04;15.90;92.90
152;DHT22;68;48.792;9.164;2023-05-07T06:22:31;15.90;92.90
152;DHT22;68;48.792;9.164;2023-05-07T06:24:58;16.00;92.10
152;DHT22;68;48.792;9.164;2023-05-07T06:27:25;15.80;92.30
152;DHT22;68;48.792;9.164;2023-05-07T06:29:53;15.70;93.20
152;DHT22;68;48.792;9.164;2023-05-07T06:32:21;15.80;93.50
152;DHT22;68;48.792;9.164;2023-05-07T06:34:48;15.80;93.30
152;DHT22;68;48.792;9.164;2023-05-07T06:37:15;15.60;93.20
152;DHT22;68;48.792;9.164;2023-05-07T06:39:41;15.40;93.60
152;DHT22;68;48.792;9.164;2023-05-07T06:42:08;15.70;93.50
152;DHT22;68;48.792;9.164;2023-05-07T06:44:35;15.80;93.40
152;DHT22;68;48.792;9.164;2023-05-07T06:47:01;15.90;93.10
152;DHT22;68;48.792;9.164;2023-05-07T06:49:29;15.90;93.20
152;DHT22;68;48.792;9.164;2023-05-07T06:51:56;16.10;93.10
152;DHT22;68;48.792;9.164;2023-05-07T06:54:23;16.40;92.30
152;DHT22;68;48.792;9.164;2023-05-07T06:56:50;16.50;90.90
152;DHT22;68;48.792;9.164;2023-05-07T06:59:17;16.70;90.90
152;DHT22;68;48.792;9.164;2023-05-07T07:01:44;16.70;89.50
152;DHT22;68;48.792;9.164;2023-05-07T07:04:11;16.50;88.00
152;DHT22;68;48.792;9.164;2023-05-07T07:06:39;16.60;89.20
152;DHT22;68;48.792;9.164;2023-05-07T07:09:06;16.70;89.70
152;DHT22;68;48.792;9.164;2023-05-07T07:11:33;16.80;89.40
152;DHT22;68;48.792;9.164;2023-05-07T07:13:59;17.00;89.20
152;DHT22;68;48.792;9.164;2023-05-07T07:16:26;17.10;88.30
152;DHT22;68;48.792;9.164;2023-05-07T07:18:53;17.20;88.60
152;DHT22;68;48.792;9.164;2023-05-07T07:21:20;17.10;87.00
152;DHT22;68;48.792;9.164;2023-05-07T07:23:48;17.00;86.10
152;DHT22;68;48.792;9.164;2023-05-07T07:26:14;17.10;88.30
152;DHT22;68;48.792;9.164;2023-05-07T07:28:45;17.50;86.70
152;DHT22;68;48.792;9.164;2023-05-07T07:31:12;17.50;85.90
152;DHT22;68;48.792;9.164;2023-05-07T07:33:39;17.80;86.10
152;DHT22;68;48.792;9.164;2023-05-07T07:36:06;18.00;85.10
152;DHT22;68;48.792;9.164;2023-05-07T07:38:33;18.10;85.20
152;DHT22;68;48.792;9.164;2023-05-07T07:41:02;18.30;85.20
152;DHT22;68;48.792;9.164;2023-05-07T07:43:29;18.40;84.60
152;DHT22;68;48.792;9.164;2023-05-07T07:45:56;18.50;83.20
152;DHT22;68;48.792;9.164;2023-05-07T07:48:22;18.60;83.50
152;DHT22;68;48.792;9.164;2023-05-07T07:50:50;18.70;83.50
152;DHT22;68;48.792;9.164;2023-05-07T07:53:17;18.90;83.40
152;DHT22;68;48.792;9.164;2023-05-07T07:55:44;19.10;81.00
152;DHT22;68;48.792;9.164;2023-05-07T07:58:12;19.20;81.30
152;DHT22;68;48.792;9.164;2023-05-07T08:00:39;18.80;80.90
152;DHT22;68;48.792;9.164;2023-05-07T08:03:05;19.00;81.80
152;DHT22;68;48.792;9.164;2023-05-07T08:05:35;18.70;81.70
152;DHT22;68;48.792;9.164;2023-05-07T08:08:02;18.60;82.70
152;DHT22;68;48.792;9.164;2023-05-07T08:10:28;18.80;82.00
152;DHT22;68;48.792;9.164;2023-05-07T08:12:59;18.70;81.90
152;DHT22;68;48.792;9.164;2023-05-07T08:15:27;19.00;81.50
152;DHT22;68;48.792;9.164;2023-05-07T08:17:54;19.10;81.40
152;DHT22;68;48.792;9.164;2023-05-07T08:20:22;19.20;81.30
152;DHT22;68;48.792;9.164;2023-05-07T08:22:49;19.50;81.00
152;DHT22;68;48.792;9.164;2023-05-07T08:25:17;19.70;80.50
152;DHT22;68;48.792;9.164;2023-05-07T08:27:44;19.60;79.50
152;DHT22;68;48.792;9.164;2023-05-07T08:30:12;19.50;79.30
152;DHT22;68;48.792;9.164;2023-05-07T08:32:40;19.80;79.50
152;DHT22;68;48.792;9.164;2023-05-07T08:35:08;19.70;78.20
152;DHT22;68;48.792;9.164;2023-05-07T08:37:35;19.80;78.80
152;DHT22;68;48.792;9.164;2023-05-07T08:40:02;19.90;78.10
152;DHT22;68;48.792;9.164;2023-05-07T08:42:29;20.10;77.90
152;DHT22;68;48.792;9.164;2023-05-07T08:44:57;20.10;77.70
152;DHT22;68;48.792;9.164;2023-05-07T08:47:31;20.10;77.60
152;DHT22;68;48.792;9.164;2023-05-07T08:50:02;20.00;77.50
152;DHT22;68;48.792;9.164;2023-05-07T08:52:29;20.00;77.90
152;DHT22;68;48.792;9.164;2023-05-07T08:54:56;20.20;77.00
152;DHT22;68;48.792;9.164;2023-05-07T08:57:23;20.50;76.50
152;DHT22;68;48.792;9.164;2023-05-07T08:59:50;20.70;76.70
152;DHT22;68;48.792;9.164;2023-05-07T09:02:16;20.70;76.60
152;DHT22;68;48.792;9.164;2023-05-07T09:04:43;20.80;76.50
152;DHT22;68;48.792;9.164;2023-05-07T09:07:11;21.10;76.60
152;DHT22;68;48.792;9.164;2023-05-07T09:09:38;21.00;75.30
152;DHT22;68;48.792;9.164;2023-05-07T09:12:05;21.00;75.80
152;DHT22;68;48.792;9.164;2023-05-07T09:14:32;21.20;74.20
152;DHT22;68;48.792;9.164;2023-05-07T09:16:59;21.20;73.50
152;DHT22;68;48.792;9.164;2023-05-07T09:19:27;21.20;73.40
152;DHT22;68;48.792;9.164;2023-05-07T09:22:00;20.90;74.70
152;DHT22;68;48.792;9.164;2023-05-07T09:24:29;21.40;74.40
152;DHT22;68;48.792;9.164;2023-05-07T09:27:00;21.40;74.30
152;DHT22;68;48.792;9.164;2023-05-07T09:29:27;21.60;74.30
152;DHT22;68;48.792;9.164;2023-05-07T09:31:55;21.80;73.00
152;DHT22;68;48.792;9.164;2023-05-07T09:34:22;21.90;72.10
152;DHT22;68;48.792;9.164;2023-05-07T09:36:49;21.90;73.40
152;DHT22;68;48.792;9.164;2023-05-07T09:39:16;21.80;72.30
152;DHT22;68;48.792;9.164;2023-05-07T09:41:45;21.90;71.40
152;DHT22;68;48.792;9.164;2023-05-07T09:44:12;22.00;73.10
152;DHT22;68;48.792;9.164;2023-05-07T09:46:42;22.30;72.30
152;DHT22;68;48.792;9.164;2023-05-07T09:49:12;22.60;70.80
152;DHT22;68;48.792;9.164;2023-05-07T09:51:47;22.50;70.60
152;DHT22;68;48.792;9.164;2023-05-07T09:54:14;22.60;70.20
152;DHT22;68;48.792;9.164;2023-05-07T09:56:42;22.60;70.40
152;DHT22;68;48.792;9.164;2023-05-07T09:59:13;22.80;69.80
152;DHT22;68;48.792;9.164;2023-05-07T10:01:41;22.90;68.00
152;DHT22;68;48.792;9.164;2023-05-07T10:04:08;23.00;66.90
152;DHT22;68;48.792;9.164;2023-05-07T10:06:36;22.90;68.10
152;DHT22;68;48.792;9.164;2023-05-07T10:09:04;22.70;69.20
152;DHT22;68;48.792;9.164;2023-05-07T10:11:32;22.80;70.20
152;DHT22;68;48.792;9.164;2023-05-07T10:13:59;23.00;66.60
152;DHT22;68;48.792;9.164;2023-05-07T10:16:31;23.20;67.10
152;DHT22;68;48.792;9.164;2023-05-07T10:18:58;23.40;67.80
152;DHT22;68;48.792;9.164;2023-05-07T10:21:27;23.60;66.60
152;DHT22;68;48.792;9.164;2023-05-07T10:23:59;23.80;66.50
152;DHT22;68;48.792;9.164;2023-05-07T10:26:29;24.20;66.50
152;DHT22;68;48.792;9.164;2023-05-07T10:28:59;24.30;66.60
152;DHT22;68;48.792;9.164;2023-05-07T10:34:29;23.60;66.70
152;DHT22;68;48.792;9.164;2023-05-07T10:36:59;23.70;66.40
152;DHT22;68;48.792;9.164;2023-05-07T10:39:27;24.00;66.10
152;DHT22;68;48.792;9.164;2023-05-07T10:41:54;24.10;63.90
152;DHT22;68;48.792;9.164;2023-05-07T10:44:27;24.30;65.50
152;DHT22;68;48.792;9.164;2023-05-07T10:47:09;24.50;64.40
152;DHT22;68;48.792;9.164;2023-05-07T10:49:38;24.60;63.70
152;DHT22;68;48.792;9.164;2023-05-07T10:52:25;24.50;64.00
152;DHT22;68;48.792;9.164;2023-05-07T10:55:19;24.40;63.80
152;DHT22;68;48.792;9.164;2023-05-07T10:57:47;24.20;64.40
152;DHT22;68;48.792;9.164;2023-05-07T11:00:43;24.20;65.40
152;DHT22;68;48.792;9.164;2023-05-07T11:03:10;24.10;65.00
152;DHT22;68;48.792;9.164;2023-05-07T11:05:38;23.90;64.40
152;DHT22;68;48.792;9.164;2023-05-07T11:08:06;23.70;62.90
152;DHT22;68;48.792;9.164;2023-05-07T11:10:50;23.80;65.20
152;DHT22;68;48.792;9.164;2023-05-07T11:13:18;23.50;64.20
152;DHT22;68;48.792;9.164;2023-05-07T11:15:47;23.70;64.60
152;DHT22;68;48.792;9.164;2023-05-07T11:18:14;23.90;63.20
152;DHT22;68;48.792;9.164;2023-05-07T11:20:55;24.00;63.40
152;DHT22;68;48.792;9.164;2023-05-07T11:23:58;23.90;62.70
152;DHT22;68;48.792;9.164;2023-05-07T11:26:26;24.00;60.70
152;DHT22;68;48.792;9.164;2023-05-07T11:28:53;24.00;61.70
152;DHT22;68;48.792;9.164;2023-05-07T11:31:22;24.10;62.10
152;DHT22;68;48.792;9.164;2023-05-07T11:33:50;23.50;62.30
152;DHT22;68;48.792;9.164;2023-05-07T11:36:18;23.30;63.70
152;DHT22;68;48.792;9.164;2023-05-07T11:38:45;23.10;63.70
152;DHT22;68;48.792;9.164;2023-05-07T11:41:13;23.20;64.60
152;DHT22;68;48.792;9.164;2023-05-07T11:43:54;23.20;66.10
152;DHT22;68;48.792;9.164;2023-05-07T11:46:21;23.10;67.60
152;DHT22;68;48.792;9.164;2023-05-07T11:48:48;22.90;67.00
152;DHT22;68;48.792;9.164;2023-05-07T11:51:19;22.70;67.70
152;DHT22;68;48.792;9.164;2023-05-07T11:53:46;22.60;68.60
152;DHT22;68;48.792;9.164;2023-05-07T11:56:16;22.60;68.90
152;DHT22;68;48.792;9.164;2023-05-07T11:58:44;22.60;70.10
152;DHT22;68;48.792;9.164;2023-05-07T12:01:11;22.60;72.80
152;DHT22;68;48.792;9.164;2023-05-07T12:03:41;22.20;76.10
152;DHT22;68;48.792;9.164;2023-05-07T12:06:09;21.50;78.80
152;DHT22;68;48.792;9.164;2023-05-07T12:08:38;21.10;82.30
152;DHT22;68;48.792;9.164;2023-05-07T12:11:07;20.70;82.90
152;DHT22;68;48.792;9.164;2023-05-07T12:13:36;20.50;82.40
152;DHT22;68;48.792;9.164;2023-05-07T12:16:05;20.40;88.20
152;DHT22;68;48.792;9.164;2023-05-07T12:18:33;20.20;91.80
152;DHT22;68;48.792;9.164;2023-05-07T12:21:01;19.40;92.30
152;DHT22;68;48.792;9.164;2023-05-07T12:23:28;19.30;88.40
152;DHT22;68;48.792;9.164;2023-05-07T12:25:55;19.00;85.30
152;DHT22;68;48.792;9.164;2023-05-07T12:28:22;18.50;84.10
152;DHT22;68;48.792;9.164;2023-05-07T12:30:50;18.10;73.90
152;DHT22;68;48.792;9.164;2023-05-07T12:33:18;17.80;76.90
152;DHT22;68;48.792;9.164;2023-05-07T12:35:47;17.70;71.10
152;DHT22;68;48.792;9.164;2023-05-07T12:38:15;17.50;55.80
152;DHT22;68;48.792;9.164;2023-05-07T12:40:44;17.50;52.10
152;DHT22;68;48.792;9.164;2023-05-07T12:43:16;17.40;58.60
152;DHT22;68;48.792;9.164;2023-05-07T12:45:44;17.40;50.20
152;DHT22;68;48.792;9.164;2023-05-07T12:48:12;17.40;47.70
152;DHT22;68;48.792;9.164;2023-05-07T12:50:39;17.40;45.50
152;DHT22;68;48.792;9.164;2023-05-07T12:53:07;17.40;47.30
152;DHT22;68;48.792;9.164;2023-05-07T12:55:40;17.20;47.10
152;DHT22;68;48.792;9.164;2023-05-07T12:58:08;17.10;46.10
152;DHT22;68;48.792;9.164;2023-05-07T13:00:35;16.70;70.40
152;DHT22;68;48.792;9.164;2023-05-07T13:03:02;16.70;68.20
152;DHT22;68;48.792;9.164;2023-05-07T13:05:31;16.60;57.60
152;DHT22;68;48.792;9.164;2023-05-07T13:07:58;16.40;58.00
152;DHT22;68;48.792;9.164;2023-05-07T13:10:26;16.20;53.90
152;DHT22;68;48.792;9.164;2023-05-07T13:12:53;16.00;62.70
152;DHT22;68;48.792;9.164;2023-05-07T13:15:20;16.20;52.60
152;DHT22;68;48.792;9.164;2023-05-07T13:17:47;16.60;50.50
152;DHT22;68;48.792;9.164;2023-05-07T13:20:14;16.50;62.20
152;DHT22;68;48.792;9.164;2023-05-07T13:22:42;16.60;62.70
152;DHT22;68;48.792;9.164;2023-05-07T13:25:09;16.70;66.70
152;DHT22;68;48.792;9.164;2023-05-07T13:27:36;16.70;67.30
152;DHT22;68;48.792;9.164;2023-05-07T13:30:04;16.60;67.80
152;DHT22;68;48.792;9.164;2023-05-07T13:32:31;16.60;62.20
152;DHT22;68;48.792;9.164;2023-05-07T13:34:58;16.60;61.50
152;DHT22;68;48.792;9.164;2023-05-07T13:37:24;16.30;56.60
152;DHT22;68;48.792;9.164;2023-05-07T13:39:52;16.00;82.90
152;DHT22;68;48.792;9.164;2023-05-07T13:42:20;16.10;77.00
152;DHT22;68;48.792;9.164;2023-05-07T13:44:47;16.20;73.70
152;DHT22;68;48.792;9.164;2023-05-07T13:47:14;16.10;75.20
152;DHT22;68;48.792;9.164;2023-05-07T13:49:40;16.20;68.30
152;DHT22;68;48.792;9.164;2023-05-07T13:52:07;16.20;67.00
152;DHT22;68;48.792;9.164;2023-05-07T13:54:34;16.20;67.60
152;DHT22;68;48.792;9.164;2023-05-07T13:57:02;16.00;75.70
152;DHT22;68;48.792;9.164;2023-05-07T13:59:29;16.00;67.80
152;DHT22;68;48.792;9.164;2023-05-07T14:01:56;15.90;67.80
152;DHT22;68;48.792;9.164;2023-05-07T14:04:22;15.70;74.70
152;DHT22;68;48.792;9.164;2023-05-07T14:06:49;15.70;65.00
152;DHT22;68;48.792;9.164;2023-05-07T14:09:16;15.90;56.50
152;DHT22;68;48.792;9.164;2023-05-07T14:11:43;16.00;50.60
152;DHT22;68;48.792;9.164;2023-05-07T14:14:11;16.20;48.00
152;DHT22;68;48.792;9.164;2023-05-07T14:16:37;16.30;49.90
152;DHT22;68;48.792;9.164;2023-05-07T14:19:04;16.20;57.60
152;DHT22;68;48.792;9.164;2023-05-07T14:21:31;16.20;63.80
152;DHT22;68;48.792;9.164;2023-05-07T14:23:58;16.30;63.00
152;DHT22;68;48.792;9.164;2023-05-07T14:26:25;16.30;63.50
152;DHT22;68;48.792;9.164;2023-05-07T14:28:53;16.40;66.40
152;DHT22;68;48.792;9.164;2023-05-07T14:31:24;16.40;63.80
152;DHT22;68;48.792;9.164;2023-05-07T14:33:51;16.30;64.10
152;DHT22;68;48.792;9.164;2023-05-07T14:36:18;16.30;63.90
152;DHT22;68;48.792;9.164;2023-05-07T14:38:46;16.20;64.00
152;DHT22;68;48.792;9.164;2023-05-07T14:41:13;16.20;60.20
152;DHT22;68;48.792;9.164;2023-05-07T14:43:40;16.40;57.40
152;DHT22;68;48.792;9.164;2023-05-07T14:46:07;16.40;56.20
152;DHT22;68;48.792;9.164;2023-05-07T14:48:35;16.30;56.60
152;DHT22;68;48.792;9.164;2023-05-07T14:51:02;16.40;55.90
152;DHT22;68;48.792;9.164;2023-05-07T14:53:28;16.40;57.60
152;DHT22;68;48.792;9.164;2023-05-07T14:55:55;16.30;57.00
152;DHT22;68;48.792;9.164;2023-05-07T14:58:22;16.20;56.10
152;DHT22;68;48.792;9.164;2023-05-07T15:00:49;16.10;55.50
152;DHT22;68;48.792;9.164;2023-05-07T15:03:15;15.90;63.90
152;DHT22;68;48.792;9.164;2023-05-07T15:05:44;15.90;62.80
152;DHT22;68;48.792;9.164;2023-05-07T15:08:10;16.00;56.50
152;DHT22;68;48.792;9.164;2023-05-07T15:10:38;16.20;52.50
152;DHT22;68;48.792;9.164;2023-05-07T15:13:06;16.20;51.70
152;DHT22;68;48.792;9.164;2023-05-07T15:15:33;16.00;57.60
152;DHT22;68;48.792;9.164;2023-05-07T15:18:00;16.00;51.30
152;DHT22;68;48.792;9.164;2023-05-07T15:20:27;16.30;46.90
152;DHT22;68;48.792;9.164;2023-05-07T15:22:55;16.10;55.50
152;DHT22;68;48.792;9.164;2023-05-07T15:25:22;16.00;51.70
152;DHT22;68;48.792;9.164;2023-05-07T15:27:49;16.00;48.90
152;DHT22;68;48.792;9.164;2023-05-07T15:30:16;15.70;52.80
152;DHT22;68;48.792;9.164;2023-05-07T15:32:45;15.90;45.50
152;DHT22;68;48.792;9.164;2023-05-07T15:35:12;16.10;44.20
152;DHT22;68;48.792;9.164;2023-05-07T15:37:39;16.30;47.60
152;DHT22;68;48.792;9.164;2023-05-07T15:40:08;16.60;47.90
152;DHT22;68;48.792;9.164;2023-05-07T15:42:36;16.30;69.40
152;DHT22;68;48.792;9.164;2023-05-07T15:45:03;16.20;63.30
152;DHT22;68;48.792;9.164;2023-05-07T15:47:32;16.50;55.40
152;DHT22;68;48.792;9.164;2023-05-07T15:50:00;16.50;63.20
152;DHT22;68;48.792;9.164;2023-05-07T15:52:26;16.50;65.70
152;DHT22;68;48.792;9.164;2023-05-07T15:54:53;16.80;64.50
152;DHT22;68;48.792;9.164;2023-05-07T15:57:22;16.60;68.20
152;DHT22;68;48.792;9.164;2023-05-07T15:59:48;16.50;69.60
152;DHT22;68;48.792;9.164;2023-05-07T16:02:15;16.70;62.30
152;DHT22;68;48.792;9.164;2023-05-07T16:04:42;16.90;65.60
152;DHT22;68;48.792;9.164;2023-05-07T16:07:09;16.70;66.00
152;DHT22;68;48.792;9.164;2023-05-07T16:09:36;16.70;66.50
152;DHT22;68;48.792;9.164;2023-05-07T16:12:03;16.40;71.50
152;DHT22;68;48.792;9.164;2023-05-07T16:14:31;16.40;64.40
152;DHT22;68;48.792;9.164;2023-05-07T16:16:58;16.50;62.80
152;DHT22;68;48.792;9.164;2023-05-07T16:19:26;16.40;69.60
152;DHT22;68;48.792;9.164;2023-05-07T16:21:52;16.20;73.50
152;DHT22;68;48.792;9.164;2023-05-07T16:24:19;16.20;65.80
152;DHT22;68;48.792;9.164;2023-05-07T16:26:46;16.20;62.40
152;DHT22;68;48.792;9.164;2023-05-07T16:29:13;16.30;58.70
152;DHT22;68;48.792;9.164;2023-05-07T16:31:41;16.30;54.90
152;DHT22;68;48.792;9.164;2023-05-07T16:34:09;16.50;50.10
152;DHT22;68;48.792;9.164;2023-05-07T16:36:35;16.60;52.20
152;DHT22;68;48.792;9.164;2023-05-07T16:39:02;16.70;49.70
152;DHT22;68;48.792;9.164;2023-05-07T16:41:29;16.90;51.30
152;DHT22;68;48.792;9.164;2023-05-07T16:43:56;17.10;55.50
152;DHT22;68;48.792;9.164;2023-05-07T16:46:23;16.90;56.70
152;DHT22;68;48.792;9.164;2023-05-07T16:48:51;16.80;54.80
152;DHT22;68;48.792;9.164;2023-05-07T16:51:18;16.80;53.80
152;DHT22;68;48.792;9.164;2023-05-07T16:53:44;17.10;54.00
152;DHT22;68;48.792;9.164;2023-05-07T16:56:11;17.30;56.70
152;DHT22;68;48.792;9.164;2023-05-07T16:58:38;17.30;61.00